sensor_id;sensor_type;location;lat;lon;timestamp;P1;durP1;ratioP1;P2;durP2;ratioP2
9080;SDS011;13509;50.760;6.080;2022-11-15T00:01:05;15.60;;;7.57;;
9080;SDS011;13509;50.760;6.080;2022-11-15T00:03:33;10.70;;;6.50;;
9080;SDS011;13509;50.760;6.080;2022-11-15T00:06:02;10.37;;;6.57;;
9080;SDS011;13509;50.760;6.080;2022-11-15T00:08:30;9.50;;;6.40;;
9080;SDS011;13509;50.760;6.080;2022-11-15T00:10:59;11.40;;;6.33;;
9080;SDS011;13509;50.760;6.080;2022-11-15T00:13:28;9.50;;;6.20;;
9080;SDS011;13509;50.760;6.080;2022-11-15T00:15:57;8.73;;;6.03;;
9080;SDS011;13509;50.760;6.080;2022-11-15T00:18:27;12.47;;;6.07;;
9080;SDS011;13509;50.760;6.080;2022-11-15T00:20:55;9.50;;;5.63;;
9080;SDS011;13509;50.760;6.080;2022-11-15T00:23:24;8.93;;;5.03;;
9080;SDS011;13509;50.760;6.080;2022-11-15T00:25:55;10.43;;;5.77;;
9080;SDS011;13509;50.760;6.080;2022-11-15T00:28:24;6.00;;;4.93;;
9080;SDS011;13509;50.760;6.080;2022-11-15T00:30:53;7.53;;;5.80;;
9080;SDS011;13509;50.760;6.080;2022-11-15T00:33:21;8.30;;;5.00;;
9080;SDS011;13509;50.760;6.080;2022-11-15T00:35:51;9.80;;;5.00;;
9080;SDS011;13509;50.760;6.080;2022-11-15T00:38:19;5.97;;;5.10;;
9080;SDS011;13509;50.760;6.080;2022-11-15T00:40:47;8.87;;;5.07;;
9080;SDS011;13509;50.760;6.080;2022-11-15T00:43:15;9.30;;;5.00;;
9080;SDS011;13509;50.760;6.080;2022-11-15T00:45:43;5.70;;;3.97;;
9080;SDS011;13509;50.760;6.080;2022-11-15T00:48:12;5.40;;;4.33;;
9080;SDS011;13509;50.760;6.080;2022-11-15T00:50:40;4.87;;;4.20;;
9080;SDS011;13509;50.760;6.080;2022-11-15T00:53:09;10.03;;;4.60;;
9080;SDS011;13509;50.760;6.080;2022-11-15T00:55:37;6.57;;;4.23;;
9080;SDS011;13509;50.760;6.080;2022-11-15T00:58:06;6.47;;;4.77;;
9080;SDS011;13509;50.760;6.080;2022-11-15T01:00:34;6.63;;;4.50;;
9080;SDS011;13509;50.760;6.080;2022-11-15T01:03:02;6.10;;;4.10;;
9080;SDS011;13509;50.760;6.080;2022-11-15T01:05:30;7.97;;;4.40;;
9080;SDS011;13509;50.760;6.080;2022-11-15T01:07:59;11.57;;;4.50;;
9080;SDS011;13509;50.760;6.080;2022-11-15T01:10:28;7.20;;;4.17;;
9080;SDS011;13509;50.760;6.080;2022-11-15T01:12:56;8.80;;;4.27;;
9080;SDS011;13509;50.760;6.080;2022-11-15T01:15:25;4.93;;;4.07;;
9080;SDS011;13509;50.760;6.080;2022-11-15T01:17:53;7.03;;;3.97;;
9080;SDS011;13509;50.760;6.080;2022-11-15T01:20:21;7.23;;;4.17;;
9080;SDS011;13509;50.760;6.080;2022-11-15T01:22:49;5.60;;;4.17;;
9080;SDS011;13509;50.760;6.080;2022-11-15T01:25:17;6.63;;;4.03;;
9080;SDS011;13509;50.760;6.080;2022-11-15T01:27:47;5.20;;;4.00;;
9080;SDS011;13509;50.760;6.080;2022-11-15T01:30:15;4.73;;;3.87;;
9080;SDS011;13509;50.760;6.080;2022-11-15T01:32:43;6.70;;;4.17;;
9080;SDS011;13509;50.760;6.080;2022-11-15T01:35:11;5.70;;;3.90;;
9080;SDS011;13509;50.760;6.080;2022-11-15T01:37:40;10.10;;;4.60;;
9080;SDS011;13509;50.760;6.080;2022-11-15T01:40:08;8.37;;;3.83;;
9080;SDS011;13509;50.760;6.080;2022-11-15T01:42:36;5.57;;;3.90;;
9080;SDS011;13509;50.760;6.080;2022-11-15T01:45:07;4.80;;;4.20;;
9080;SDS011;13509;50.760;6.080;2022-11-15T01:47:40;4.20;;;3.70;;
9080;SDS011;13509;50.760;6.080;2022-11-15T01:50:10;6.80;;;3.97;;
9080;SDS011;13509;50.760;6.080;2022-11-15T01:52:40;6.60;;;3.97;;
9080;SDS011;13509;50.760;6.080;2022-11-15T01:55:09;7.47;;;4.03;;
9080;SDS011;13509;50.760;6.080;2022-11-15T01:57:39;9.27;;;4.07;;
9080;SDS011;13509;50.760;6.080;2022-11-15T02:00:12;5.87;;;3.70;;
9080;SDS011;13509;50.760;6.080;2022-11-15T02:02:40;6.70;;;3.87;;
9080;SDS011;13509;50.760;6.080;2022-11-15T02:05:09;5.97;;;4.27;;
9080;SDS011;13509;50.760;6.080;2022-11-15T02:07:37;7.57;;;4.37;;
9080;SDS011;13509;50.760;6.080;2022-11-15T02:10:06;6.93;;;4.77;;
9080;SDS011;13509;50.760;6.080;2022-11-15T02:12:35;6.40;;;4.93;;
9080;SDS011;13509;50.760;6.080;2022-11-15T02:15:03;8.27;;;4.40;;
9080;SDS011;13509;50.760;6.080;2022-11-15T02:17:37;8.57;;;4.70;;
9080;SDS011;13509;50.760;6.080;2022-11-15T02:20:13;6.73;;;5.20;;
9080;SDS011;13509;50.760;6.080;2022-11-15T02:22:51;7.87;;;5.67;;
9080;SDS011;13509;50.760;6.080;2022-11-15T02:25:27;6.97;;;5.27;;
9080;SDS011;13509;50.760;6.080;2022-11-15T02:28:10;9.33;;;5.53;;
9080;SDS011;13509;50.760;6.080;2022-11-15T02:30:45;7.27;;;5.37;;
9080;SDS011;13509;50.760;6.080;2022-11-15T02:33:20;10.10;;;5.37;;
9080;SDS011;13509;50.760;6.080;2022-11-15T02:35:52;7.73;;;5.67;;
9080;SDS011;13509;50.760;6.080;2022-11-15T02:38:25;7.60;;;5.67;;
9080;SDS011;13509;50.760;6.080;2022-11-15T02:40:59;6.80;;;5.57;;
9080;SDS011;13509;50.760;6.080;2022-11-15T02:43:28;7.33;;;5.70;;
9080;SDS011;13509;50.760;6.080;2022-11-15T02:46:18;8.40;;;5.63;;
9080;SDS011;13509;50.760;6.080;2022-11-15T02:48:46;7.93;;;6.57;;
9080;SDS011;13509;50.760;6.080;2022-11-15T02:51:14;7.50;;;5.90;;
9080;SDS011;13509;50.760;6.080;2022-11-15T02:53:43;7.60;;;6.10;;
9080;SDS011;13509;50.760;6.080;2022-11-15T02:56:11;8.13;;;6.10;;
9080;SDS011;13509;50.760;6.080;2022-11-15T02:58:45;8.77;;;5.60;;
9080;SDS011;13509;50.760;6.080;2022-11-15T03:01:19;7.63;;;5.53;;
9080;SDS011;13509;50.760;6.080;2022-11-15T03:03:55;11.70;;;5.50;;
9080;SDS011;13509;50.760;6.080;2022-11-15T03:06:29;7.97;;;5.20;;
9080;SDS011;13509;50.760;6.080;2022-11-15T03:09:02;8.57;;;5.17;;
9080;SDS011;13509;50.760;6.080;2022-11-15T03:11:32;7.93;;;5.43;;
9080;SDS011;13509;50.760;6.080;2022-11-15T03:14:03;6.23;;;4.70;;
9080;SDS011;13509;50.760;6.080;2022-11-15T03:16:36;6.87;;;5.00;;
9080;SDS011;13509;50.760;6.080;2022-11-15T03:19:06;6.23;;;5.00;;
9080;SDS011;13509;50.760;6.080;2022-11-15T03:21:37;6.73;;;4.77;;
9080;SDS011;13509;50.760;6.080;2022-11-15T03:24:07;9.97;;;5.30;;
9080;SDS011;13509;50.760;6.080;2022-11-15T03:26:36;8.00;;;4.70;;
9080;SDS011;13509;50.760;6.080;2022-11-15T03:29:08;5.53;;;4.37;;
9080;SDS011;13509;50.760;6.080;2022-11-15T03:31:39;5.97;;;4.47;;
9080;SDS011;13509;50.760;6.080;2022-11-15T03:34:19;5.30;;;3.70;;
9080;SDS011;13509;50.760;6.080;2022-11-15T03:36:48;5.10;;;4.03;;
9080;SDS011;13509;50.760;6.080;2022-11-15T03:39:17;5.07;;;3.87;;
9080;SDS011;13509;50.760;6.080;2022-11-15T03:41:47;5.60;;;4.10;;
9080;SDS011;13509;50.760;6.080;2022-11-15T03:44:17;5.17;;;4.20;;
9080;SDS011;13509;50.760;6.080;2022-11-15T03:46:51;4.23;;;3.83;;
9080;SDS011;13509;50.760;6.080;2022-11-15T03:49:25;5.37;;;3.87;;
9080;SDS011;13509;50.760;6.080;2022-11-15T03:51:56;4.37;;;3.40;;
9080;SDS011;13509;50.760;6.080;2022-11-15T03:54:24;5.13;;;3.00;;
9080;SDS011;13509;50.760;6.080;2022-11-15T03:56:52;4.40;;;3.27;;
9080;SDS011;13509;50.760;6.080;2022-11-15T03:59:21;3.33;;;3.00;;
9080;SDS011;13509;50.760;6.080;2022-11-15T04:01:50;3.33;;;2.90;;
9080;SDS011;13509;50.760;6.080;2022-11-15T04:04:18;2.87;;;2.57;;
9080;SDS011;13509;50.760;6.080;2022-11-15T04:06:46;3.20;;;2.67;;
9080;SDS011;13509;50.760;6.080;2022-11-15T04:09:15;3.00;;;2.50;;
9080;SDS011;13509;50.760;6.080;2022-11-15T04:11:43;2.57;;;2.10;;
9080;SDS011;13509;50.760;6.080;2022-11-15T04:14:11;3.00;;;2.70;;
9080;SDS011;13509;50.760;6.080;2022-11-15T04:16:39;2.67;;;2.47;;
9080;SDS011;13509;50.760;6.080;2022-11-15T04:19:10;2.70;;;2.30;;
9080;SDS011;13509;50.760;6.080;2022-11-15T04:21:55;2.27;;;2.07;;
9080;SDS011;13509;50.760;6.080;2022-11-15T04:24:41;1.90;;;1.80;;
9080;SDS011;13509;50.760;6.080;2022-11-15T04:27:10;2.37;;;2.17;;
9080;SDS011;13509;50.760;6.080;2022-11-15T04:29:39;4.90;;;2.10;;
9080;SDS011;13509;50.760;6.080;2022-11-15T04:32:07;1.70;;;1.57;;
9080;SDS011;13509;50.760;6.080;2022-11-15T04:34:36;1.83;;;1.73;;
9080;SDS011;13509;50.760;6.080;2022-11-15T04:37:05;1.60;;;1.50;;
9080;SDS011;13509;50.760;6.080;2022-11-15T04:39:38;1.63;;;1.53;;
9080;SDS011;13509;50.760;6.080;2022-11-15T04:42:07;1.60;;;1.50;;
9080;SDS011;13509;50.760;6.080;2022-11-15T04:44:35;2.10;;;1.30;;
9080;SDS011;13509;50.760;6.080;2022-11-15T04:47:03;1.57;;;1.47;;
9080;SDS011;13509;50.760;6.080;2022-11-15T04:49:32;1.40;;;1.30;;
9080;SDS011;13509;50.760;6.080;2022-11-15T04:52:01;3.27;;;1.40;;
9080;SDS011;13509;50.760;6.080;2022-11-15T04:54:29;1.53;;;1.43;;
9080;SDS011;13509;50.760;6.080;2022-11-15T04:56:57;1.40;;;1.30;;
9080;SDS011;13509;50.760;6.080;2022-11-15T04:59:26;1.40;;;1.30;;
9080;SDS011;13509;50.760;6.080;2022-11-15T05:01:54;1.50;;;1.40;;
9080;SDS011;13509;50.760;6.080;2022-11-15T05:04:22;1.20;;;1.10;;
9080;SDS011;13509;50.760;6.080;2022-11-15T05:06:50;1.30;;;1.10;;
9080;SDS011;13509;50.760;6.080;2022-11-15T05:09:20;1.40;;;1.30;;
9080;SDS011;13509;50.760;6.080;2022-11-15T05:11:48;1.27;;;1.17;;
9080;SDS011;13509;50.760;6.080;2022-11-15T05:14:16;0.90;;;0.90;;
9080;SDS011;13509;50.760;6.080;2022-11-15T05:16:44;1.73;;;1.07;;
9080;SDS011;13509;50.760;6.080;2022-11-15T05:19:12;2.30;;;1.03;;
9080;SDS011;13509;50.760;6.080;2022-11-15T05:21:41;1.27;;;1.00;;
9080;SDS011;13509;50.760;6.080;2022-11-15T05:24:09;2.03;;;1.20;;
9080;SDS011;13509;50.760;6.080;2022-11-15T05:26:39;2.03;;;1.10;;
9080;SDS011;13509;50.760;6.080;2022-11-15T05:29:08;1.10;;;1.10;;
9080;SDS011;13509;50.760;6.080;2022-11-15T05:31:39;1.23;;;1.13;;
9080;SDS011;13509;50.760;6.080;2022-11-15T05:34:07;1.27;;;1.17;;
9080;SDS011;13509;50.760;6.080;2022-11-15T05:36:36;1.30;;;1.20;;
9080;SDS011;13509;50.760;6.080;2022-11-15T05:39:05;3.10;;;1.40;;
9080;SDS011;13509;50.760;6.080;2022-11-15T05:41:35;2.07;;;1.10;;
9080;SDS011;13509;50.760;6.080;2022-11-15T05:44:06;2.90;;;1.20;;
9080;SDS011;13509;50.760;6.080;2022-11-15T05:46:35;1.30;;;1.20;;
9080;SDS011;13509;50.760;6.080;2022-11-15T05:49:05;2.03;;;1.30;;
9080;SDS011;13509;50.760;6.080;2022-11-15T05:51:33;1.20;;;1.00;;
9080;SDS011;13509;50.760;6.080;2022-11-15T05:54:02;1.27;;;1.13;;
9080;SDS011;13509;50.760;6.080;2022-11-15T05:56:30;3.13;;;1.10;;
9080;SDS011;13509;50.760;6.080;2022-11-15T05:58:58;1.87;;;1.43;;
9080;SDS011;13509;50.760;6.080;2022-11-15T06:01:28;2.50;;;1.30;;
9080;SDS011;13509;50.760;6.080;2022-11-15T06:03:56;2.33;;;1.63;;
9080;SDS011;13509;50.760;6.080;2022-11-15T06:06:24;1.50;;;1.40;;
9080;SDS011;13509;50.760;6.080;2022-11-15T06:08:52;1.40;;;1.30;;
9080;SDS011;13509;50.760;6.080;2022-11-15T06:11:21;1.60;;;1.50;;
9080;SDS011;13509;50.760;6.080;2022-11-15T06:13:49;1.50;;;1.40;;
9080;SDS011;13509;50.760;6.080;2022-11-15T06:16:17;2.37;;;1.63;;
9080;SDS011;13509;50.760;6.080;2022-11-15T06:18:46;2.13;;;1.60;;
9080;SDS011;13509;50.760;6.080;2022-11-15T06:21:14;2.90;;;1.70;;
9080;SDS011;13509;50.760;6.080;2022-11-15T06:23:43;1.83;;;1.70;;
9080;SDS011;13509;50.760;6.080;2022-11-15T06:26:11;1.93;;;1.70;;
9080;SDS011;13509;50.760;6.080;2022-11-15T06:28:39;3.87;;;1.60;;
9080;SDS011;13509;50.760;6.080;2022-11-15T06:31:08;2.70;;;1.40;;
9080;SDS011;13509;50.760;6.080;2022-11-15T06:33:37;1.50;;;1.40;;
9080;SDS011;13509;50.760;6.080;2022-11-15T06:36:07;1.97;;;1.40;;
9080;SDS011;13509;50.760;6.080;2022-11-15T06:38:42;1.40;;;1.27;;
9080;SDS011;13509;50.760;6.080;2022-11-15T06:41:11;4.17;;;1.23;;
9080;SDS011;13509;50.760;6.080;2022-11-15T06:43:40;1.30;;;1.20;;
9080;SDS011;13509;50.760;6.080;2022-11-15T06:46:08;2.47;;;1.47;;
9080;SDS011;13509;50.760;6.080;2022-11-15T06:48:36;1.83;;;1.40;;
9080;SDS011;13509;50.760;6.080;2022-11-15T06:51:05;3.20;;;1.70;;
9080;SDS011;13509;50.760;6.080;2022-11-15T06:53:35;3.33;;;1.40;;
9080;SDS011;13509;50.760;6.080;2022-11-15T06:56:04;3.63;;;1.40;;
9080;SDS011;13509;50.760;6.080;2022-11-15T06:58:33;2.00;;;1.40;;
9080;SDS011;13509;50.760;6.080;2022-11-15T07:01:02;1.70;;;1.30;;
9080;SDS011;13509;50.760;6.080;2022-11-15T07:03:31;2.43;;;1.20;;
9080;SDS011;13509;50.760;6.080;2022-11-15T07:06:00;1.40;;;1.30;;
9080;SDS011;13509;50.760;6.080;2022-11-15T07:08:32;2.37;;;1.50;;
9080;SDS011;13509;50.760;6.080;2022-11-15T07:11:03;1.87;;;1.67;;
9080;SDS011;13509;50.760;6.080;2022-11-15T07:13:31;3.83;;;1.63;;
9080;SDS011;13509;50.760;6.080;2022-11-15T07:16:01;2.03;;;1.47;;
9080;SDS011;13509;50.760;6.080;2022-11-15T07:18:29;4.20;;;1.97;;
9080;SDS011;13509;50.760;6.080;2022-11-15T07:21:00;4.57;;;1.60;;
9080;SDS011;13509;50.760;6.080;2022-11-15T07:23:28;3.33;;;1.93;;
9080;SDS011;13509;50.760;6.080;2022-11-15T07:25:57;3.60;;;1.40;;
9080;SDS011;13509;50.760;6.080;2022-11-15T07:28:27;1.63;;;1.50;;
9080;SDS011;13509;50.760;6.080;2022-11-15T07:30:55;2.53;;;1.47;;
9080;SDS011;13509;50.760;6.080;2022-11-15T07:33:23;2.43;;;1.37;;
9080;SDS011;13509;50.760;6.080;2022-11-15T07:35:52;3.43;;;1.50;;
9080;SDS011;13509;50.760;6.080;2022-11-15T07:38:20;2.87;;;1.40;;
9080;SDS011;13509;50.760;6.080;2022-11-15T07:40:55;2.03;;;1.50;;
9080;SDS011;13509;50.760;6.080;2022-11-15T07:43:23;4.10;;;1.50;;
9080;SDS011;13509;50.760;6.080;2022-11-15T07:45:53;7.97;;;1.70;;
9080;SDS011;13509;50.760;6.080;2022-11-15T07:48:24;4.80;;;1.60;;
9080;SDS011;13509;50.760;6.080;2022-11-15T07:51:10;3.17;;;1.60;;
9080;SDS011;13509;50.760;6.080;2022-11-15T07:53:39;3.20;;;1.40;;
9080;SDS011;13509;50.760;6.080;2022-11-15T07:56:08;5.43;;;1.63;;
9080;SDS011;13509;50.760;6.080;2022-11-15T07:58:36;3.67;;;1.50;;
9080;SDS011;13509;50.760;6.080;2022-11-15T08:01:08;3.63;;;1.47;;
9080;SDS011;13509;50.760;6.080;2022-11-15T08:03:36;1.67;;;1.23;;
9080;SDS011;13509;50.760;6.080;2022-11-15T08:06:05;1.50;;;1.33;;
9080;SDS011;13509;50.760;6.080;2022-11-15T08:08:33;2.13;;;1.23;;
9080;SDS011;13509;50.760;6.080;2022-11-15T08:11:01;1.90;;;1.10;;
9080;SDS011;13509;50.760;6.080;2022-11-15T08:13:29;4.73;;;1.23;;
9080;SDS011;13509;50.760;6.080;2022-11-15T08:15:58;2.70;;;1.00;;
9080;SDS011;13509;50.760;6.080;2022-11-15T08:18:28;1.63;;;1.40;;
9080;SDS011;13509;50.760;6.080;2022-11-15T08:20:58;2.20;;;1.17;;
9080;SDS011;13509;50.760;6.080;2022-11-15T08:23:26;3.67;;;1.20;;
9080;SDS011;13509;50.760;6.080;2022-11-15T08:25:58;1.73;;;1.20;;
9080;SDS011;13509;50.760;6.080;2022-11-15T08:28:27;5.40;;;1.20;;
9080;SDS011;13509;50.760;6.080;2022-11-15T08:30:55;3.90;;;1.33;;
9080;SDS011;13509;50.760;6.080;2022-11-15T08:33:23;2.80;;;1.37;;
9080;SDS011;13509;50.760;6.080;2022-11-15T08:35:55;3.10;;;1.37;;
9080;SDS011;13509;50.760;6.080;2022-11-15T08:38:23;4.03;;;1.23;;
9080;SDS011;13509;50.760;6.080;2022-11-15T08:40:52;2.10;;;1.13;;
9080;SDS011;13509;50.760;6.080;2022-11-15T08:43:21;3.27;;;1.20;;
9080;SDS011;13509;50.760;6.080;2022-11-15T08:45:49;2.47;;;1.17;;
9080;SDS011;13509;50.760;6.080;2022-11-15T08:48:17;6.40;;;1.40;;
9080;SDS011;13509;50.760;6.080;2022-11-15T08:50:45;1.73;;;1.07;;
9080;SDS011;13509;50.760;6.080;2022-11-15T08:53:15;1.63;;;1.10;;
9080;SDS011;13509;50.760;6.080;2022-11-15T08:55:43;5.90;;;1.20;;
9080;SDS011;13509;50.760;6.080;2022-11-15T08:58:11;4.10;;;1.23;;
9080;SDS011;13509;50.760;6.080;2022-11-15T09:00:39;2.10;;;1.10;;
9080;SDS011;13509;50.760;6.080;2022-11-15T09:03:07;4.57;;;1.30;;
9080;SDS011;13509;50.760;6.080;2022-11-15T09:05:36;2.03;;;1.20;;
9080;SDS011;13509;50.760;6.080;2022-11-15T09:08:04;2.77;;;1.30;;
9080;SDS011;13509;50.760;6.080;2022-11-15T09:10:54;12.00;;;1.50;;
9080;SDS011;13509;50.760;6.080;2022-11-15T09:13:22;6.73;;;1.33;;
9080;SDS011;13509;50.760;6.080;2022-11-15T09:15:50;5.53;;;1.20;;
9080;SDS011;13509;50.760;6.080;2022-11-15T09:18:18;1.93;;;1.00;;
9080;SDS011;13509;50.760;6.080;2022-11-15T09:20:48;1.60;;;1.00;;
9080;SDS011;13509;50.760;6.080;2022-11-15T09:23:16;3.17;;;1.13;;
9080;SDS011;13509;50.760;6.080;2022-11-15T09:25:44;2.10;;;1.00;;
9080;SDS011;13509;50.760;6.080;2022-11-15T09:28:14;2.27;;;0.97;;
9080;SDS011;13509;50.760;6.080;2022-11-15T09:30:42;3.20;;;1.07;;
9080;SDS011;13509;50.760;6.080;2022-11-15T09:33:11;3.03;;;1.03;;
9080;SDS011;13509;50.760;6.080;2022-11-15T09:35:39;2.77;;;1.20;;
9080;SDS011;13509;50.760;6.080;2022-11-15T09:38:08;4.40;;;1.17;;
9080;SDS011;13509;50.760;6.080;2022-11-15T09:40:36;2.50;;;1.00;;
9080;SDS011;13509;50.760;6.080;2022-11-15T09:43:08;2.97;;;1.00;;
9080;SDS011;13509;50.760;6.080;2022-11-15T09:45:47;7.00;;;1.50;;
9080;SDS011;13509;50.760;6.080;2022-11-15T09:51:18;2.53;;;1.00;;
9080;SDS011;13509;50.760;6.080;2022-11-15T09:53:47;2.50;;;1.00;;
9080;SDS011;13509;50.760;6.080;2022-11-15T09:56:37;1.13;;;0.80;;
9080;SDS011;13509;50.760;6.080;2022-11-15T09:59:18;2.83;;;1.07;;
9080;SDS011;13509;50.760;6.080;2022-11-15T10:01:58;1.93;;;1.07;;
9080;SDS011;13509;50.760;6.080;2022-11-15T10:04:30;2.57;;;1.10;;
9080;SDS011;13509;50.760;6.080;2022-11-15T10:07:00;2.77;;;1.00;;
9080;SDS011;13509;50.760;6.080;2022-11-15T10:09:31;4.00;;;1.00;;
9080;SDS011;13509;50.760;6.080;2022-11-15T10:12:02;2.07;;;0.90;;
9080;SDS011;13509;50.760;6.080;2022-11-15T10:14:30;1.20;;;1.00;;
9080;SDS011;13509;50.760;6.080;2022-11-15T10:17:09;4.33;;;1.00;;
9080;SDS011;13509;50.760;6.080;2022-11-15T10:19:45;3.00;;;1.20;;
9080;SDS011;13509;50.760;6.080;2022-11-15T10:22:25;3.07;;;1.00;;
9080;SDS011;13509;50.760;6.080;2022-11-15T10:24:59;2.03;;;1.00;;
9080;SDS011;13509;50.760;6.080;2022-11-15T10:27:28;2.50;;;0.70;;
9080;SDS011;13509;50.760;6.080;2022-11-15T10:29:57;2.73;;;1.20;;
9080;SDS011;13509;50.760;6.080;2022-11-15T10:32:26;1.50;;;0.80;;
9080;SDS011;13509;50.760;6.080;2022-11-15T10:34:55;1.57;;;1.00;;
9080;SDS011;13509;50.760;6.080;2022-11-15T10:37:27;1.20;;;0.80;;
9080;SDS011;13509;50.760;6.080;2022-11-15T10:40:03;3.23;;;0.87;;
9080;SDS011;13509;50.760;6.080;2022-11-15T10:42:31;1.50;;;1.00;;
9080;SDS011;13509;50.760;6.080;2022-11-15T10:44:59;4.30;;;0.93;;
9080;SDS011;13509;50.760;6.080;2022-11-15T10:47:29;1.87;;;0.83;;
9080;SDS011;13509;50.760;6.080;2022-11-15T10:50:05;2.90;;;1.00;;
9080;SDS011;13509;50.760;6.080;2022-11-15T10:52:34;2.93;;;1.13;;
9080;SDS011;13509;50.760;6.080;2022-11-15T10:55:05;2.60;;;1.00;;
9080;SDS011;13509;50.760;6.080;2022-11-15T10:57:35;3.43;;;1.10;;
9080;SDS011;13509;50.760;6.080;2022-11-15T11:00:05;1.70;;;1.00;;
9080;SDS011;13509;50.760;6.080;2022-11-15T11:02:36;3.33;;;0.97;;
9080;SDS011;13509;50.760;6.080;2022-11-15T11:05:06;6.17;;;1.17;;
9080;SDS011;13509;50.760;6.080;2022-11-15T11:07:34;5.97;;;1.07;;
9080;SDS011;13509;50.760;6.080;2022-11-15T11:10:05;9.03;;;1.20;;
9080;SDS011;13509;50.760;6.080;2022-11-15T11:12:53;1.03;;;0.90;;
9080;SDS011;13509;50.760;6.080;2022-11-15T11:15:22;4.50;;;1.07;;
9080;SDS011;13509;50.760;6.080;2022-11-15T11:17:57;3.60;;;1.07;;
9080;SDS011;13509;50.760;6.080;2022-11-15T11:20:27;4.20;;;1.03;;
9080;SDS011;13509;50.760;6.080;2022-11-15T11:23:00;3.40;;;1.10;;
9080;SDS011;13509;50.760;6.080;2022-11-15T11:25:33;4.30;;;0.90;;
9080;SDS011;13509;50.760;6.080;2022-11-15T11:28:14;3.13;;;1.10;;
9080;SDS011;13509;50.760;6.080;2022-11-15T11:30:47;1.57;;;1.00;;
9080;SDS011;13509;50.760;6.080;2022-11-15T11:33:19;6.23;;;1.00;;
9080;SDS011;13509;50.760;6.080;2022-11-15T11:35:50;2.63;;;1.10;;
9080;SDS011;13509;50.760;6.080;2022-11-15T11:38:27;3.40;;;1.10;;
9080;SDS011;13509;50.760;6.080;2022-11-15T11:41:03;3.63;;;1.00;;
9080;SDS011;13509;50.760;6.080;2022-11-15T11:43:34;2.17;;;1.10;;
9080;SDS011;13509;50.760;6.080;2022-11-15T11:46:09;4.00;;;1.13;;
9080;SDS011;13509;50.760;6.080;2022-11-15T11:48:43;5.17;;;0.90;;
9080;SDS011;13509;50.760;6.080;2022-11-15T11:51:13;4.13;;;0.90;;
9080;SDS011;13509;50.760;6.080;2022-11-15T11:53:44;1.87;;;0.90;;
9080;SDS011;13509;50.760;6.080;2022-11-15T11:56:17;4.00;;;1.00;;
9080;SDS011;13509;50.760;6.080;2022-11-15T11:58:46;2.23;;;1.00;;
9080;SDS011;13509;50.760;6.080;2022-11-15T12:01:16;4.73;;;1.27;;
9080;SDS011;13509;50.760;6.080;2022-11-15T12:03:47;6.07;;;1.20;;
9080;SDS011;13509;50.760;6.080;2022-11-15T12:06:20;2.47;;;1.30;;
9080;SDS011;13509;50.760;6.080;2022-11-15T12:08:52;7.20;;;1.33;;
9080;SDS011;13509;50.760;6.080;2022-11-15T12:11:22;3.60;;;1.40;;
9080;SDS011;13509;50.760;6.080;2022-11-15T12:13:53;6.07;;;1.50;;
9080;SDS011;13509;50.760;6.080;2022-11-15T12:16:26;4.87;;;1.60;;
9080;SDS011;13509;50.760;6.080;2022-11-15T12:18:57;2.67;;;1.20;;
9080;SDS011;13509;50.760;6.080;2022-11-15T12:21:29;4.27;;;1.30;;
9080;SDS011;13509;50.760;6.080;2022-11-15T12:24:01;4.33;;;1.00;;
9080;SDS011;13509;50.760;6.080;2022-11-15T12:26:32;2.80;;;1.07;;
9080;SDS011;13509;50.760;6.080;2022-11-15T12:29:02;3.30;;;1.40;;
9080;SDS011;13509;50.760;6.080;2022-11-15T12:31:36;2.17;;;1.20;;
9080;SDS011;13509;50.760;6.080;2022-11-15T12:34:13;4.97;;;1.30;;
9080;SDS011;13509;50.760;6.080;2022-11-15T12:36:43;3.10;;;1.23;;
9080;SDS011;13509;50.760;6.080;2022-11-15T12:39:12;4.03;;;1.30;;
9080;SDS011;13509;50.760;6.080;2022-11-15T12:41:41;2.60;;;1.33;;
9080;SDS011;13509;50.760;6.080;2022-11-15T12:44:10;2.20;;;1.20;;
9080;SDS011;13509;50.760;6.080;2022-11-15T12:49:48;1.63;;;1.10;;
9080;SDS011;13509;50.760;6.080;2022-11-15T12:52:17;1.50;;;1.20;;
9080;SDS011;13509;50.760;6.080;2022-11-15T12:55:01;2.73;;;1.40;;
9080;SDS011;13509;50.760;6.080;2022-11-15T12:57:34;2.90;;;1.20;;
9080;SDS011;13509;50.760;6.080;2022-11-15T13:02:56;1.70;;;1.20;;
9080;SDS011;13509;50.760;6.080;2022-11-15T13:05:58;4.10;;;1.40;;
9080;SDS011;13509;50.760;6.080;2022-11-15T13:08:37;5.53;;;1.77;;
9080;SDS011;13509;50.760;6.080;2022-11-15T13:13:51;1.97;;;1.13;;
9080;SDS011;13509;50.760;6.080;2022-11-15T13:16:20;2.17;;;1.00;;
9080;SDS011;13509;50.760;6.080;2022-11-15T13:18:52;1.20;;;1.00;;
9080;SDS011;13509;50.760;6.080;2022-11-15T13:21:23;4.93;;;1.40;;
9080;SDS011;13509;50.760;6.080;2022-11-15T13:24:13;1.10;;;1.00;;
9080;SDS011;13509;50.760;6.080;2022-11-15T13:26:42;1.90;;;1.20;;
9080;SDS011;13509;50.760;6.080;2022-11-15T13:29:17;2.67;;;1.20;;
9080;SDS011;13509;50.760;6.080;2022-11-15T13:31:45;2.20;;;1.20;;
9080;SDS011;13509;50.760;6.080;2022-11-15T13:34:16;1.90;;;1.07;;
9080;SDS011;13509;50.760;6.080;2022-11-15T13:37:10;1.27;;;1.03;;
9080;SDS011;13509;50.760;6.080;2022-11-15T13:39:40;3.30;;;1.50;;
9080;SDS011;13509;50.760;6.080;2022-11-15T13:42:13;1.37;;;1.27;;
9080;SDS011;13509;50.760;6.080;2022-11-15T13:44:53;1.30;;;1.20;;
9080;SDS011;13509;50.760;6.080;2022-11-15T13:47:22;2.97;;;1.33;;
9080;SDS011;13509;50.760;6.080;2022-11-15T13:49:53;2.50;;;1.33;;
9080;SDS011;13509;50.760;6.080;2022-11-15T13:52:22;1.40;;;1.30;;
9080;SDS011;13509;50.760;6.080;2022-11-15T13:54:55;4.17;;;1.40;;
9080;SDS011;13509;50.760;6.080;2022-11-15T13:57:25;3.67;;;1.50;;
9080;SDS011;13509;50.760;6.080;2022-11-15T13:59:55;2.87;;;1.50;;
9080;SDS011;13509;50.760;6.080;2022-11-15T14:02:25;2.17;;;1.50;;
9080;SDS011;13509;50.760;6.080;2022-11-15T14:04:53;3.03;;;1.50;;
9080;SDS011;13509;50.760;6.080;2022-11-15T14:07:25;2.30;;;1.40;;
9080;SDS011;13509;50.760;6.080;2022-11-15T14:09:55;4.70;;;1.60;;
9080;SDS011;13509;50.760;6.080;2022-11-15T14:12:24;2.07;;;1.57;;
9080;SDS011;13509;50.760;6.080;2022-11-15T14:14:53;2.30;;;1.80;;
9080;SDS011;13509;50.760;6.080;2022-11-15T14:17:33;2.80;;;1.40;;
9080;SDS011;13509;50.760;6.080;2022-11-15T14:20:02;1.30;;;1.20;;
9080;SDS011;13509;50.760;6.080;2022-11-15T14:22:32;2.80;;;1.50;;
9080;SDS011;13509;50.760;6.080;2022-11-15T14:25:04;2.30;;;1.40;;
9080;SDS011;13509;50.760;6.080;2022-11-15T14:27:33;1.77;;;1.17;;
9080;SDS011;13509;50.760;6.080;2022-11-15T14:30:02;1.60;;;1.50;;
9080;SDS011;13509;50.760;6.080;2022-11-15T14:32:37;1.70;;;1.20;;
9080;SDS011;13509;50.760;6.080;2022-11-15T14:35:09;3.10;;;1.50;;
9080;SDS011;13509;50.760;6.080;2022-11-15T14:37:41;1.97;;;1.50;;
9080;SDS011;13509;50.760;6.080;2022-11-15T14:40:11;1.90;;;1.33;;
9080;SDS011;13509;50.760;6.080;2022-11-15T14:42:40;1.97;;;1.30;;
9080;SDS011;13509;50.760;6.080;2022-11-15T14:45:10;1.70;;;1.30;;
9080;SDS011;13509;50.760;6.080;2022-11-15T14:47:39;2.00;;;1.40;;
9080;SDS011;13509;50.760;6.080;2022-11-15T14:50:10;4.27;;;1.63;;
9080;SDS011;13509;50.760;6.080;2022-11-15T14:52:40;1.23;;;1.10;;
9080;SDS011;13509;50.760;6.080;2022-11-15T14:55:14;1.70;;;1.20;;
9080;SDS011;13509;50.760;6.080;2022-11-15T14:57:43;2.40;;;1.40;;
9080;SDS011;13509;50.760;6.080;2022-11-15T15:00:12;3.43;;;1.20;;
9080;SDS011;13509;50.760;6.080;2022-11-15T15:02:40;1.63;;;1.20;;
9080;SDS011;13509;50.760;6.080;2022-11-15T15:05:12;1.50;;;1.40;;
9080;SDS011;13509;50.760;6.080;2022-11-15T15:07:42;1.70;;;1.30;;
9080;SDS011;13509;50.760;6.080;2022-11-15T15:10:11;2.80;;;1.30;;
9080;SDS011;13509;50.760;6.080;2022-11-15T15:12:59;1.43;;;1.33;;
9080;SDS011;13509;50.760;6.080;2022-11-15T15:15:31;1.37;;;1.20;;
9080;SDS011;13509;50.760;6.080;2022-11-15T15:18:00;1.27;;;1.10;;
9080;SDS011;13509;50.760;6.080;2022-11-15T15:20:28;1.30;;;1.20;;
9080;SDS011;13509;50.760;6.080;2022-11-15T15:22:58;4.20;;;1.50;;
9080;SDS011;13509;50.760;6.080;2022-11-15T15:25:27;1.37;;;1.27;;
9080;SDS011;13509;50.760;6.080;2022-11-15T15:27:56;1.27;;;1.17;;
9080;SDS011;13509;50.760;6.080;2022-11-15T15:30:24;1.87;;;1.40;;
9080;SDS011;13509;50.760;6.080;2022-11-15T15:32:53;1.53;;;1.10;;